Time;durP1;ratioP1;P1;durP2;ratioP2;P2;SDS_P1;SDS_P2;PMS_P1;PMS_P2;Temp;Humidity;BMP_temperature;BMP_pressure;BME280_temperature;BME280_humidity;BME280_pressure;Samples;Min_cycle;Max_cycle;Signal;HPM_P1;HPM_P2
2022/10/03 00:01:21;;;;;;;4.00;2.77;;;17.40;90.80;;;;;;1924614;74;21430;-55
2022/10/03 00:04:02;;;;;;;3.72;2.87;;;17.40;90.70;;;;;;1923962;74;21434;-57
2022/10/03 00:06:46;;;;;;;6.45;2.85;;;17.40;90.70;;;;;;1905561;74;21018;-57
2022/10/03 00:09:24;;;;;;;3.65;2.90;;;17.30;90.70;;;;;;1895870;74;21080;-56
2022/10/03 00:12:02;;;;;;;3.62;2.83;;;17.40;90.70;;;;;;1924356;74;21054;-56
2022/10/03 00:14:43;;;;;;;4.08;2.77;;;17.30;90.60;;;;;;1924126;74;21073;-56
2022/10/03 00:17:27;;;;;;;5.60;2.92;;;17.30;90.70;;;;;;1924391;74;21110;-56
2022/10/03 00:20:18;;;;;;;5.05;2.83;;;17.30;90.70;;;;;;1912025;74;21077;-55
2022/10/03 00:22:56;;;;;;;4.70;2.77;;;17.20;90.60;;;;;;1924771;74;21050;-56
2022/10/03 00:25:41;;;;;;;6.92;2.58;;;17.20;90.60;;;;;;1916174;74;21051;-56
2022/10/03 00:28:31;;;;;;;6.85;2.90;;;17.20;90.60;;;;;;1904784;74;21039;-56
2022/10/03 00:31:12;;;;;;;2.92;2.60;;;17.30;90.60;;;;;;1905233;75;21020;-56
2022/10/03 00:34:02;;;;;;;5.20;3.33;;;17.20;90.50;;;;;;1905230;75;21015;-55
2022/10/03 00:37:07;;;;;;;5.20;2.65;;;17.30;90.50;;;;;;1905187;74;21016;-56
2022/10/03 00:39:42;;;;;;;3.22;2.58;;;17.20;90.50;;;;;;1905640;74;21085;-56
2022/10/03 00:42:23;;;;;;;5.90;2.62;;;17.30;90.50;;;;;;1905215;75;20988;-56
2022/10/03 00:45:10;;;;;;;9.38;2.47;;;17.20;90.30;;;;;;1903532;74;21047;-56
2022/10/03 00:47:51;;;;;;;3.83;2.45;;;17.20;90.30;;;;;;1904555;74;21023;-57
2022/10/03 00:50:38;;;;;;;8.55;2.35;;;17.20;90.40;;;;;;1904844;74;21048;-57
2022/10/03 00:53:32;;;;;;;5.35;2.62;;;17.20;90.30;;;;;;1905066;74;21067;-57
2022/10/03 00:56:40;;;;;;;2.97;2.40;;;17.20;90.30;;;;;;1882666;74;21047;-57
2022/10/03 00:59:18;;;;;;;3.67;2.52;;;17.10;90.30;;;;;;1905333;75;21713;-57
2022/10/03 01:01:49;;;;;;;2.60;2.20;;;17.00;90.20;;;;;;1905311;75;21074;-57
2022/10/03 01:04:39;;;;;;;2.85;2.45;;;17.00;90.30;;;;;;1905348;75;21023;-57
2022/10/03 01:07:25;;;;;;;4.92;2.85;;;17.00;90.30;;;;;;1905014;74;21031;-57
2022/10/03 01:10:03;;;;;;;5.30;2.50;;;17.00;90.40;;;;;;1904883;74;21130;-57
2022/10/03 01:13:04;;;;;;;4.42;2.92;;;17.00;90.50;;;;;;1905248;75;21039;-57
2022/10/03 01:15:42;;;;;;;3.17;2.33;;;17.10;90.60;;;;;;1905341;74;21095;-56
2022/10/03 01:18:16;;;;;;;5.33;2.72;;;17.10;90.60;;;;;;1904808;74;21132;-57
2022/10/03 01:20:49;;;;;;;5.20;2.50;;;17.10;90.60;;;;;;1905443;75;21067;-57
2022/10/03 01:23:47;;;;;;;3.67;2.50;;;17.10;90.70;;;;;;1905349;74;20995;-57
2022/10/03 01:26:35;;;;;;;3.05;2.50;;;17.20;90.80;;;;;;1916223;74;21520;-57
2022/10/03 01:32:12;;;;;;;3.42;2.45;;;17.20;90.80;;;;;;1924584;74;21054;-57
2022/10/03 01:34:48;;;;;;;4.10;2.90;;;17.20;90.80;;;;;;1921534;74;21046;-57
2022/10/03 01:37:26;;;;;;;4.70;2.27;;;17.20;90.80;;;;;;1924719;74;21127;-57
2022/10/03 01:40:04;;;;;;;6.83;2.60;;;17.20;90.90;;;;;;1924325;74;21057;-57
2022/10/03 01:42:57;;;;;;;3.92;2.87;;;17.10;90.90;;;;;;1923532;74;21500;-56
2022/10/03 01:45:52;;;;;;;3.98;2.80;;;17.10;90.90;;;;;;1924740;74;21034;-57
2022/10/03 01:48:48;;;;;;;3.72;3.17;;;17.10;90.90;;;;;;1924874;74;21124;-56
2022/10/03 01:51:20;;;;;;;3.42;2.70;;;17.10;90.90;;;;;;1924702;74;21535;-57
2022/10/03 01:53:58;;;;;;;3.70;2.60;;;17.10;91.00;;;;;;1924794;74;21019;-57
2022/10/03 01:56:41;;;;;;;3.52;3.10;;;17.10;91.00;;;;;;1924533;74;21022;-56
2022/10/03 01:59:47;;;;;;;4.50;2.58;;;17.00;90.90;;;;;;1923233;74;21043;-56
2022/10/03 02:02:28;;;;;;;5.47;2.87;;;16.90;90.90;;;;;;1925019;74;21081;-57
2022/10/03 02:05:03;;;;;;;4.87;2.80;;;16.90;90.90;;;;;;1924585;74;21094;-57
2022/10/03 02:07:56;;;;;;;5.60;2.72;;;16.90;91.00;;;;;;1924943;74;21062;-57
2022/10/03 02:10:42;;;;;;;4.67;2.40;;;16.90;91.10;;;;;;1924652;74;21019;-57
2022/10/03 02:13:17;;;;;;;3.65;2.72;;;16.90;91.00;;;;;;1923759;74;21497;-57
2022/10/03 02:16:18;;;;;;;4.47;2.67;;;16.90;91.00;;;;;;1924507;74;21023;-56
2022/10/03 02:18:59;;;;;;;6.47;2.70;;;16.80;91.00;;;;;;1924778;74;21101;-57
2022/10/03 02:21:31;;;;;;;4.37;2.60;;;16.90;91.00;;;;;;1924776;74;21050;-57
2022/10/03 02:24:17;;;;;;;3.12;2.70;;;16.80;91.10;;;;;;1924793;74;21432;-57
2022/10/03 02:26:58;;;;;;;3.90;2.58;;;16.80;91.10;;;;;;1875403;76;21120;-57
2022/10/03 02:29:47;;;;;;;3.95;2.77;;;16.80;91.10;;;;;;1882388;76;21131;-57
2022/10/03 02:32:31;;;;;;;6.50;3.15;;;16.80;91.20;;;;;;1882511;76;21096;-57
2022/10/03 02:35:24;;;;;;;3.67;2.80;;;16.80;91.10;;;;;;1882259;76;21096;-57
2022/10/03 02:38:19;;;;;;;3.77;2.37;;;16.70;90.90;;;;;;1882024;76;21534;-56
2022/10/03 02:41:05;;;;;;;5.87;2.98;;;16.70;90.80;;;;;;1882169;75;21037;-56
2022/10/03 02:43:49;;;;;;;4.03;3.10;;;16.60;90.80;;;;;;1882250;76;21070;-56
2022/10/03 02:46:33;;;;;;;4.72;3.15;;;16.50;90.70;;;;;;1880998;75;21103;-56
2022/10/03 02:49:21;;;;;;;4.12;3.15;;;16.40;90.70;;;;;;1882093;76;21025;-57
2022/10/03 02:52:25;;;;;;;4.05;3.10;;;16.30;90.70;;;;;;1881158;75;21057;-57
2022/10/03 02:55:22;;;;;;;3.67;2.75;;;16.20;90.70;;;;;;1882213;76;21076;-57
2022/10/03 02:58:26;;;;;;;4.85;3.25;;;16.20;90.60;;;;;;1882223;76;21092;-57
2022/10/03 03:01:24;;;;;;;4.30;2.95;;;16.10;90.60;;;;;;1882183;76;21038;-57
2022/10/03 03:04:28;;;;;;;4.47;3.42;;;16.10;90.60;;;;;;1882157;75;21127;-56
2022/10/03 03:07:04;;;;;;;4.75;2.85;;;16.10;90.60;;;;;;1882147;76;21147;-57
2022/10/03 03:09:47;;;;;;;3.12;2.80;;;16.10;90.70;;;;;;1882186;76;21472;-57
2022/10/03 03:12:28;;;;;;;11.88;4.95;;;16.10;90.60;;;;;;1880411;75;21511;-57
2022/10/03 03:15:07;;;;;;;4.92;2.92;;;16.00;90.50;;;;;;1879871;76;21440;-57
2022/10/03 03:17:48;;;;;;;4.83;3.75;;;16.00;90.50;;;;;;1882234;76;21133;-56
2022/10/03 03:20:40;;;;;;;6.40;3.33;;;16.00;90.70;;;;;;1882015;76;21151;-56
2022/10/03 03:23:30;;;;;;;4.67;3.70;;;16.00;90.50;;;;;;1882119;76;21121;-56
2022/10/03 03:26:24;;;;;;;5.08;3.08;;;16.00;90.70;;;;;;1884500;74;21021;-57
2022/10/03 03:29:11;;;;;;;4.70;3.20;;;15.90;90.40;;;;;;1924013;74;21178;-57
2022/10/03 03:32:03;;;;;;;4.70;3.10;;;15.90;90.30;;;;;;1924115;74;21018;-57
2022/10/03 03:34:52;;;;;;;6.80;3.10;;;15.90;90.20;;;;;;1910063;74;21100;-57
2022/10/03 03:37:24;;;;;;;5.95;3.80;;;15.80;90.20;;;;;;1924291;74;21108;-57
2022/10/03 03:40:11;;;;;;;4.97;3.10;;;15.80;90.30;;;;;;1924516;74;21030;-57
2022/10/03 03:42:57;;;;;;;5.30;3.20;;;15.80;90.30;;;;;;1924441;74;21006;-56
2022/10/03 03:45:33;;;;;;;4.55;3.60;;;15.80;90.30;;;;;;1923948;74;20991;-57
2022/10/03 03:48:21;;;;;;;5.30;3.20;;;15.80;90.40;;;;;;1924421;74;21125;-57
2022/10/03 03:50:56;;;;;;;5.55;3.40;;;15.80;90.40;;;;;;1924004;74;21020;-56
2022/10/03 03:53:46;;;;;;;4.67;3.80;;;15.80;90.30;;;;;;1924493;74;21105;-57
2022/10/03 03:56:21;;;;;;;4.45;3.37;;;15.80;90.30;;;;;;1924262;74;21563;-57
2022/10/03 03:58:53;;;;;;;;;;;15.80;90.20;;;;;;1926724;74;21072;-57
2022/10/03 04:01:44;;;;;;;6.65;4.00;;;15.80;90.00;;;;;;1923711;74;20101;-57
2022/10/03 04:04:32;;;;;;;4.30;3.08;;;15.70;90.20;;;;;;1924412;74;21516;-57
2022/10/03 04:07:14;;;;;;;5.75;3.33;;;15.70;90.20;;;;;;1923903;74;21015;-57
2022/10/03 04:10:11;;;;;;;4.50;3.55;;;15.70;90.30;;;;;;1924218;74;21018;-57
2022/10/03 04:12:47;;;;;;;5.08;3.20;;;15.70;90.30;;;;;;1924607;74;21069;-57
2022/10/03 04:15:48;;;;;;;5.37;3.30;;;15.70;90.30;;;;;;1924471;74;21467;-57
2022/10/03 04:21:21;;;;;;;4.10;2.90;;;15.70;90.30;;;;;;1924531;74;21043;-57
2022/10/03 04:23:59;;;;;;;4.65;3.90;;;15.80;90.40;;;;;;1924609;74;21501;-57
2022/10/03 04:26:43;;;;;;;6.50;3.42;;;15.80;90.50;;;;;;1924453;74;21504;-57
2022/10/03 04:29:23;;;;;;;5.30;2.90;;;15.90;90.40;;;;;;1924055;74;21055;-56
2022/10/03 04:32:17;;;;;;;4.70;3.40;;;16.00;90.40;;;;;;1924679;74;21127;-56
2022/10/03 04:35:08;;;;;;;6.30;3.90;;;16.00;90.20;;;;;;1924804;74;21042;-56
2022/10/03 04:37:59;;;;;;;5.03;3.67;;;16.00;90.20;;;;;;1924707;74;21062;-57
2022/10/03 04:40:40;;;;;;;7.87;3.00;;;16.10;90.20;;;;;;1924785;74;21501;-57
2022/10/03 04:43:42;;;;;;;5.12;2.90;;;16.00;90.10;;;;;;1924580;74;21480;-57
2022/10/03 04:46:29;;;;;;;5.50;3.02;;;16.10;90.10;;;;;;1886813;74;20999;-56
2022/10/03 04:49:07;;;;;;;3.37;2.47;;;16.10;90.10;;;;;;1924358;74;21074;-57
2022/10/03 04:51:54;;;;;;;4.80;2.85;;;16.10;90.10;;;;;;1924273;74;21026;-56
2022/10/03 04:54:49;;;;;;;8.13;3.37;;;16.10;90.00;;;;;;1924712;74;21097;-56
2022/10/03 04:57:39;;;;;;;3.95;3.05;;;16.10;90.10;;;;;;1924628;74;21030;-57
2022/10/03 05:00:27;;;;;;;6.53;2.92;;;16.10;90.10;;;;;;1924131;74;21611;-56
2022/10/03 05:03:14;;;;;;;6.28;3.70;;;16.20;90.20;;;;;;1924828;74;21469;-57
2022/10/03 05:06:07;;;;;;;4.42;2.40;;;16.20;90.10;;;;;;1924712;74;21476;-56
2022/10/03 05:08:47;;;;;;;5.87;3.37;;;16.20;90.10;;;;;;1924504;74;21011;-57
2022/10/03 05:11:22;;;;;;;3.75;2.25;;;16.30;90.10;;;;;;1924706;74;21465;-57
2022/10/03 05:14:10;;;;;;;10.30;2.50;;;16.40;90.10;;;;;;1923980;74;21050;-57
2022/10/03 05:16:43;;;;;;;5.65;2.20;;;16.50;89.40;;;;;;1883784;74;21047;-57
2022/10/03 05:19:20;;;;;;;4.62;2.20;;;16.60;89.20;;;;;;1924495;74;21437;-57
2022/10/03 05:22:12;;;;;;;4.15;1.98;;;16.60;88.80;;;;;;1920939;74;21026;-57
2022/10/03 05:25:02;;;;;;;4.05;2.67;;;16.60;88.20;;;;;;1924612;74;21039;-57
2022/10/03 05:27:37;;;;;;;3.30;2.22;;;16.70;88.40;;;;;;1923338;74;21051;-57
2022/10/03 05:30:18;;;;;;;6.17;3.33;;;16.80;88.00;;;;;;1924264;74;20991;-57
2022/10/03 05:32:53;;;;;;;6.72;2.33;;;16.80;87.50;;;;;;1924680;74;21059;-57
2022/10/03 05:35:28;;;;;;;5.22;1.87;;;16.70;87.40;;;;;;1921702;74;21042;-57
2022/10/03 05:38:23;;;;;;;5.08;2.10;;;16.70;87.10;;;;;;1924758;74;21130;-57
2022/10/03 05:41:10;;;;;;;3.33;2.62;;;16.70;87.00;;;;;;1924647;74;21038;-57
2022/10/03 05:43:48;;;;;;;4.85;1.90;;;16.70;87.20;;;;;;1924592;74;21088;-57
2022/10/03 05:46:35;;;;;;;8.08;2.30;;;16.70;87.80;;;;;;1923900;74;21622;-57
2022/10/03 05:49:26;;;;;;;5.30;2.12;;;16.80;87.00;;;;;;1924352;74;21096;-57
2022/10/03 05:52:06;;;;;;;6.00;2.40;;;16.90;87.00;;;;;;1924423;74;21092;-57
2022/10/03 05:54:47;;;;;;;3.27;1.92;;;16.90;86.80;;;;;;1894168;74;21018;-57
2022/10/03 05:57:46;;;;;;;4.90;2.20;;;17.00;86.60;;;;;;1924511;74;21520;-57
2022/10/03 06:00:21;;;;;;;4.65;1.70;;;17.00;86.00;;;;;;1923517;74;21484;-57
2022/10/03 06:03:16;;;;;;;6.10;2.17;;;17.10;85.40;;;;;;1919353;74;20991;-57
2022/10/03 06:06:00;;;;;;;6.03;2.35;;;17.10;85.40;;;;;;1924797;74;21116;-56
2022/10/03 06:08:49;;;;;;;4.25;2.52;;;17.00;85.50;;;;;;1924529;74;21096;-57
2022/10/03 06:11:37;;;;;;;3.67;1.60;;;17.00;85.60;;;;;;1923358;74;21081;-57
2022/10/03 06:14:32;;;;;;;7.62;1.80;;;17.10;84.60;;;;;;1924709;74;21171;-56
2022/10/03 06:17:16;;;;;;;3.90;2.13;;;17.10;84.30;;;;;;1924935;74;21497;-57
2022/10/03 06:20:13;;;;;;;3.37;1.87;;;17.20;84.20;;;;;;1924533;74;21141;-57
2022/10/03 06:22:54;;;;;;;2.15;1.60;;;17.20;83.90;;;;;;1923647;74;21093;-57
2022/10/03 06:25:50;;;;;;;5.42;2.20;;;17.30;83.80;;;;;;1920113;74;21458;-56
2022/10/03 06:28:34;;;;;;;3.00;1.60;;;17.40;83.30;;;;;;1902925;74;21158;-56
2022/10/03 06:31:15;;;;;;;1.70;1.57;;;17.40;83.30;;;;;;1904718;74;21023;-56
2022/10/03 06:34:11;;;;;;;4.17;2.02;;;17.40;83.30;;;;;;1874342;74;21039;-56
2022/10/03 06:36:59;;;;;;;1.60;1.50;;;17.50;83.10;;;;;;1891925;75;21059;-56
2022/10/03 06:39:48;;;;;;;2.52;1.90;;;17.50;82.10;;;;;;1904858;74;21068;-56
2022/10/03 06:42:43;;;;;;;4.60;1.70;;;17.50;81.90;;;;;;1905190;75;21019;-56
2022/10/03 06:45:22;;;;;;;;;;;17.50;82.30;;;;;;1908079;75;21047;-57
2022/10/03 06:48:11;;;;;;;2.00;1.70;;;17.60;81.10;;;;;;1905148;75;20106;-57
2022/10/03 06:50:45;;;;;;;3.30;1.50;;;17.60;82.30;;;;;;1905179;74;21093;-57
2022/10/03 06:53:32;;;;;;;2.47;1.70;;;17.70;82.20;;;;;;1904872;74;21051;-57
2022/10/03 06:56:16;;;;;;;3.22;1.90;;;17.70;82.00;;;;;;1904906;74;21114;-57
2022/10/03 06:59:24;;;;;;;3.00;1.90;;;17.80;81.80;;;;;;1904020;74;21022;-57
2022/10/03 07:01:56;;;;;;;8.83;2.35;;;17.80;80.80;;;;;;1904874;74;21077;-56
2022/10/03 07:04:57;;;;;;;4.83;1.80;;;17.90;80.80;;;;;;1905208;75;21520;-56
2022/10/03 07:07:35;;;;;;;4.15;1.70;;;17.90;81.00;;;;;;1905180;75;21051;-56
2022/10/03 07:10:06;;;;;;;3.08;1.80;;;17.90;79.80;;;;;;1904333;74;21091;-57
2022/10/03 07:13:03;;;;;;;7.22;1.85;;;17.90;80.10;;;;;;1903415;74;21059;-56
2022/10/03 07:16:02;;;;;;;4.10;2.00;;;18.00;79.70;;;;;;1905061;74;21027;-57
2022/10/03 07:18:40;;;;;;;8.08;2.40;;;18.00;79.80;;;;;;1899793;75;21082;-57
2022/10/03 07:21:18;;;;;;;4.58;1.85;;;18.10;78.80;;;;;;1905139;75;21019;-57
2022/10/03 07:24:02;;;;;;;3.90;1.95;;;18.10;77.60;;;;;;1904130;74;21098;-57
2022/10/03 07:26:56;;;;;;;3.65;2.00;;;18.10;77.00;;;;;;1904870;74;21024;-57
2022/10/03 07:29:49;;;;;;;8.17;2.67;;;18.10;77.10;;;;;;1905007;74;21121;-57
2022/10/03 07:32:23;;;;;;;3.35;2.33;;;18.20;77.30;;;;;;1904913;74;21482;-57
2022/10/03 07:38:56;;;;;;;4.17;1.62;;;18.20;77.40;;;;;;1904920;74;21016;-57
2022/10/03 07:41:23;;;;;;;4.92;1.67;;;18.40;75.00;;;;;;1905137;74;21172;-56
2022/10/03 07:44:02;;;;;;;;;;;18.40;74.60;;;;;;1907289;74;21012;-57
2022/10/03 07:46:52;;;;;;;8.53;2.02;;;18.40;71.80;;;;;;1905049;75;20145;-57
2022/10/03 07:50:01;;;;;;;3.25;1.90;;;18.50;73.20;;;;;;1904362;74;21196;-57
2022/10/03 07:52:39;;;;;;;6.08;1.90;;;18.50;74.40;;;;;;1904363;74;21540;-57
2022/10/03 07:55:43;;;;;;;3.45;1.92;;;18.60;75.00;;;;;;1905010;74;21481;-56
2022/10/03 07:58:34;;;;;;;3.45;1.70;;;18.70;74.90;;;;;;1843326;76;21051;-57
2022/10/03 08:01:25;;;;;;;6.87;1.67;;;18.70;74.60;;;;;;1895453;74;21454;-57
2022/10/03 08:04:00;;;;;;;3.30;1.95;;;18.80;73.20;;;;;;1905195;74;21109;-57
2022/10/03 08:06:49;;;;;;;4.42;2.00;;;18.70;73.60;;;;;;1905533;75;21112;-56
2022/10/03 08:09:30;;;;;;;2.70;1.80;;;18.80;73.20;;;;;;1904864;74;21051;-57
2022/10/03 08:12:24;;;;;;;3.08;1.72;;;18.80;72.90;;;;;;1903795;74;21090;-56
2022/10/03 08:15:05;;;;;;;2.83;1.55;;;18.90;73.20;;;;;;1905163;75;21011;-56
2022/10/03 08:17:40;;;;;;;2.22;1.32;;;19.00;73.00;;;;;;1904869;74;21100;-56
2022/10/03 08:20:27;;;;;;;2.77;1.60;;;19.00;72.80;;;;;;1904741;74;21598;-57
2022/10/03 08:23:22;;;;;;;3.70;2.20;;;19.10;72.90;;;;;;1905239;75;21039;-56
2022/10/03 08:26:19;;;;;;;3.90;1.42;;;19.10;72.00;;;;;;1905261;75;21039;-56
2022/10/03 08:28:57;;;;;;;2.00;1.90;;;19.20;71.90;;;;;;1905102;74;21063;-56
2022/10/03 08:31:51;;;;;;;2.42;1.20;;;19.30;72.20;;;;;;1904831;74;21093;-56
2022/10/03 08:34:45;;;;;;;1.77;1.40;;;19.40;70.20;;;;;;1905019;74;21047;-56
2022/10/03 08:37:50;;;;;;;5.30;2.12;;;19.50;70.30;;;;;;1903552;74;21031;-54
2022/10/03 08:40:52;;;;;;;1.30;1.20;;;19.50;70.00;;;;;;1856281;77;21126;-57
2022/10/03 08:43:39;;;;;;;2.55;1.50;;;19.70;70.20;;;;;;1899398;74;21024;-57
2022/10/03 08:46:13;;;;;;;3.40;1.75;;;19.70;69.60;;;;;;1904531;75;21102;-58
2022/10/03 08:49:02;;;;;;;8.45;1.42;;;19.70;72.00;;;;;;1888512;75;21063;-59
2022/10/03 08:51:57;;;;;;;2.70;1.98;;;19.70;72.60;;;;;;1903871;74;21011;-59
2022/10/03 08:54:35;;;;;;;2.08;1.50;;;19.80;72.60;;;;;;1904570;75;21102;-58
2022/10/03 08:57:20;;;;;;;4.03;1.40;;;19.90;72.70;;;;;;1904699;75;21039;-58
2022/10/03 09:00:04;;;;;;;3.77;1.30;;;20.00;73.10;;;;;;1904784;75;21019;-58
2022/10/03 09:02:59;;;;;;;4.33;2.23;;;20.10;73.20;;;;;;1904791;75;21059;-58
2022/10/03 09:05:50;;;;;;;4.00;1.80;;;20.20;73.30;;;;;;1904970;75;21027;-60
2022/10/03 09:08:39;;;;;;;5.95;1.72;;;20.30;72.90;;;;;;1904514;75;21102;-61
2022/10/03 09:11:23;;;;;;;4.60;1.50;;;20.40;71.30;;;;;;1904604;75;21138;-64
2022/10/03 09:14:15;;;;;;;1.67;1.22;;;20.30;70.60;;;;;;1903899;74;21458;-59
2022/10/03 09:16:49;;;;;;;2.52;1.42;;;20.20;70.30;;;;;;1903408;74;21071;-60
2022/10/03 09:19:19;;;;;;;;;;;20.20;71.30;;;;;;1906895;74;21043;-61
2022/10/03 09:22:06;;;;;;;2.98;1.42;;;20.20;67.60;;;;;;1903933;74;20093;-61
2022/10/03 09:25:11;;;;;;;2.17;1.67;;;20.20;70.20;;;;;;1904206;74;21132;-60
2022/10/03 09:28:03;;;;;;;1.67;1.22;;;20.10;69.90;;;;;;1904621;74;21035;-61
2022/10/03 09:30:53;;;;;;;1.52;1.12;;;20.10;68.50;;;;;;1904255;75;21063;-61
2022/10/03 09:33:45;;;;;;;2.30;1.15;;;20.20;65.50;;;;;;1904532;74;21065;-60
2022/10/03 09:36:17;;;;;;;3.95;1.32;;;20.20;67.20;;;;;;1904480;75;21098;-60
2022/10/03 09:39:04;;;;;;;5.08;1.92;;;20.20;67.80;;;;;;1902736;74;20996;-61
2022/10/03 09:41:45;;;;;;;3.02;1.50;;;20.20;68.30;;;;;;1904531;75;21142;-59
2022/10/03 09:44:34;;;;;;;1.65;0.90;;;20.20;68.60;;;;;;1903751;74;21078;-60
2022/10/03 09:47:26;;;;;;;2.30;1.00;;;20.20;65.00;;;;;;1904525;74;21058;-58
2022/10/03 09:50:18;;;;;;;2.02;1.27;;;20.30;65.00;;;;;;1904294;74;21102;-58
2022/10/03 09:53:14;;;;;;;1.25;1.10;;;20.30;65.50;;;;;;1904413;74;21063;-60
2022/10/03 09:55:46;;;;;;;2.40;1.25;;;20.40;65.70;;;;;;1903570;75;21051;-61
2022/10/03 09:58:21;;;;;;;2.12;1.02;;;20.50;64.80;;;;;;1903824;74;21489;-61
2022/10/03 10:01:02;;;;;;;2.35;1.52;;;20.40;64.10;;;;;;1899967;75;21055;-61
2022/10/03 10:03:55;;;;;;;3.08;1.30;;;20.40;64.40;;;;;;1904015;74;21098;-58
2022/10/03 10:06:42;;;;;;;3.98;1.67;;;20.40;64.40;;;;;;1872707;74;21021;-59
2022/10/03 10:09:17;;;;;;;6.90;1.37;;;20.40;65.20;;;;;;1904311;74;21150;-59
2022/10/03 10:11:49;;;;;;;5.05;1.60;;;20.40;64.40;;;;;;1904373;74;21027;-60
2022/10/03 10:14:42;;;;;;;3.15;1.12;;;20.50;63.30;;;;;;1884453;74;21093;-61
2022/10/03 10:17:25;;;;;;;2.25;1.57;;;20.40;63.40;;;;;;1943501;74;21177;-61
2022/10/03 10:19:59;;;;;;;2.05;1.10;;;20.30;63.00;;;;;;1943763;74;21534;-60
2022/10/03 10:22:57;;;;;;;1.50;0.90;;;20.20;63.70;;;;;;1943459;73;21539;-64
2022/10/03 10:25:41;;;;;;;0.80;0.75;;;20.20;63.80;;;;;;1943743;74;21107;-62
2022/10/03 10:28:33;;;;;;;1.42;0.98;;;20.20;62.80;;;;;;1872356;74;21090;-61
2022/10/03 10:31:38;;;;;;;4.00;2.12;;;20.20;62.40;;;;;;1942309;73;21051;-61
2022/10/03 10:34:13;;;;;;;1.87;0.88;;;20.30;62.70;;;;;;1943813;74;21161;-60
2022/10/03 10:37:11;;;;;;;1.82;0.93;;;20.30;62.50;;;;;;1925469;73;21079;-59
2022/10/03 10:40:16;;;;;;;4.85;1.30;;;20.40;63.00;;;;;;1943508;74;21103;-59
2022/10/03 10:43:18;;;;;;;1.57;0.80;;;20.50;62.40;;;;;;1941767;73;21068;-59
2022/10/03 10:46:14;;;;;;;1.57;0.90;;;20.50;61.40;;;;;;1944060;73;21092;-61
2022/10/03 10:49:20;;;;;;;4.53;0.90;;;20.60;58.60;;;;;;1941205;74;21103;-61
2022/10/03 10:51:58;;;;;;;2.65;1.07;;;20.70;59.60;;;;;;1943891;74;21153;-59
2022/10/03 10:54:50;;;;;;;4.80;1.05;;;20.80;58.60;;;;;;1907051;73;21467;-61
2022/10/03 10:57:28;;;;;;;1.40;1.00;;;20.80;59.20;;;;;;1943982;73;21036;-61
2022/10/03 11:00:25;;;;;;;1.82;1.00;;;20.80;59.00;;;;;;1940857;73;21576;-62
2022/10/03 11:03:07;;;;;;;1.10;0.95;;;20.80;59.10;;;;;;1943771;73;21020;-63
2022/10/03 11:05:59;;;;;;;5.70;1.20;;;20.70;59.90;;;;;;1943729;73;21087;-62
2022/10/03 11:08:48;;;;;;;3.00;1.32;;;20.60;60.80;;;;;;1939766;74;21133;-60
2022/10/03 11:11:51;;;;;;;1.42;0.90;;;20.50;61.20;;;;;;1943901;73;21035;-59
2022/10/03 11:14:44;;;;;;;3.12;2.37;;;20.40;61.50;;;;;;1980012;72;21103;-60
2022/10/03 11:17:49;;;;;;;3.00;1.10;;;20.30;62.10;;;;;;1992461;72;21155;-59
2022/10/03 11:20:36;;;;;;;2.22;1.27;;;20.30;62.60;;;;;;1992501;72;21537;-60
2022/10/03 11:23:24;;;;;;;5.75;1.65;;;20.20;62.80;;;;;;1992080;72;21018;-63
2022/10/03 11:26:17;;;;;;;3.05;1.80;;;20.20;62.70;;;;;;1944006;72;21846;-63
2022/10/03 11:29:15;;;;;;;8.48;1.92;;;20.10;62.90;;;;;;1992326;72;21026;-61
2022/10/03 11:31:53;;;;;;;10.88;1.98;;;20.10;63.20;;;;;;1992412;72;21124;-60
2022/10/03 11:34:57;;;;;;;5.20;1.37;;;20.10;63.50;;;;;;1991604;72;21116;-59
2022/10/03 11:37:47;;;;;;;8.65;1.55;;;20.10;63.20;;;;;;1990100;72;21030;-58
2022/10/03 11:40:31;;;;;;;9.28;2.10;;;20.10;63.20;;;;;;1992629;72;21072;-59
2022/10/03 11:43:09;;;;;;;10.13;2.42;;;20.00;63.30;;;;;;1991616;72;21072;-58
2022/10/03 11:45:46;;;;;;;8.10;1.50;;;20.00;63.50;;;;;;1992654;72;21073;-56
2022/10/03 11:48:22;;;;;;;6.35;3.00;;;20.00;63.50;;;;;;1992539;72;21032;-58
2022/10/03 11:50:58;;;;;;;8.50;1.90;;;20.00;63.50;;;;;;1991831;72;21022;-58
2022/10/03 11:53:48;;;;;;;3.20;1.42;;;20.10;63.40;;;;;;1992600;72;21073;-59
2022/10/03 11:56:32;;;;;;;3.27;1.45;;;20.20;63.10;;;;;;1992861;72;21034;-58
2022/10/03 11:59:17;;;;;;;4.65;0.90;;;20.30;62.60;;;;;;1978318;72;21038;-59
2022/10/03 12:02:08;;;;;;;2.00;1.02;;;20.40;62.00;;;;;;1992980;72;21090;-57
2022/10/03 12:05:00;;;;;;;2.15;0.90;;;20.50;60.90;;;;;;1964695;72;21010;-58
2022/10/03 12:11:02;;;;;;;2.00;0.88;;;20.60;58.60;;;;;;1993262;72;21007;-59
2022/10/03 12:13:34;;;;;;;5.17;1.30;;;20.70;58.80;;;;;;1991824;72;21453;-58
2022/10/03 12:16:06;;;;;;;1.45;0.90;;;20.80;57.60;;;;;;1985048;72;21050;-59
2022/10/03 12:18:44;;;;;;;4.35;1.27;;;20.70;57.20;;;;;;1986145;72;21011;-59
2022/10/03 12:21:37;;;;;;;3.98;1.37;;;20.70;57.70;;;;;;1986724;72;21015;-59
2022/10/03 12:24:11;;;;;;;4.22;1.17;;;20.60;57.50;;;;;;1986686;72;20987;-60
2022/10/03 12:27:01;;;;;;;3.85;1.32;;;20.50;57.60;;;;;;1982672;72;21017;-60
2022/10/03 12:29:33;;;;;;;1.65;1.00;;;20.50;57.90;;;;;;1986770;72;20990;-60
2022/10/03 12:32:15;;;;;;;2.37;0.78;;;20.40;57.00;;;;;;1986628;72;21019;-60
2022/10/03 12:34:50;;;;;;;1.72;0.93;;;20.40;56.10;;;;;;1986786;72;21567;-60
2022/10/03 12:37:20;;;;;;;;;;;20.40;56.10;;;;;;1987650;72;21096;-60
2022/10/03 12:39:54;;;;;;;3.55;1.00;;;20.40;52.50;;;;;;1986152;72;20183;-60
2022/10/03 12:42:49;;;;;;;2.87;1.30;;;20.50;55.50;;;;;;1949961;72;21085;-60
2022/10/03 12:45:39;;;;;;;4.60;1.17;;;20.50;55.50;;;;;;1986895;71;21011;-59
2022/10/03 12:48:28;;;;;;;1.00;0.90;;;20.60;55.70;;;;;;1986688;72;21034;-60
2022/10/03 12:51:18;;;;;;;5.75;1.30;;;20.60;55.40;;;;;;1986745;72;21038;-60
2022/10/03 12:53:53;;;;;;;8.83;1.47;;;20.70;55.20;;;;;;1986511;71;21084;-58
2022/10/03 12:56:30;;;;;;;3.95;2.45;;;20.70;55.30;;;;;;1986126;72;21076;-59
2022/10/03 12:59:08;;;;;;;4.97;1.35;;;20.80;55.80;;;;;;1986497;72;21528;-59
2022/10/03 13:01:43;;;;;;;4.90;1.15;;;20.80;55.30;;;;;;1985860;72;21104;-59
2022/10/03 13:04:28;;;;;;;4.70;1.10;;;20.90;54.60;;;;;;1984313;71;21123;-59
2022/10/03 13:07:16;;;;;;;2.40;1.10;;;20.80;54.50;;;;;;1986179;72;21009;-59
2022/10/03 13:09:58;;;;;;;4.87;1.22;;;20.90;54.60;;;;;;1986781;72;21030;-59
2022/10/03 13:12:52;;;;;;;0.90;0.78;;;20.80;55.40;;;;;;1986782;72;21073;-60
2022/10/03 13:16:00;;;;;;;6.25;1.40;;;20.80;55.20;;;;;;1986672;72;21103;-60
2022/10/03 13:18:42;;;;;;;3.92;1.60;;;20.80;55.40;;;;;;1986192;71;21563;-60
2022/10/03 13:21:26;;;;;;;1.07;0.72;;;20.90;55.40;;;;;;1986883;72;20986;-60
2022/10/03 13:23:57;;;;;;;3.20;1.12;;;20.90;54.80;;;;;;1985416;72;21018;-60
2022/10/03 13:26:44;;;;;;;4.25;1.42;;;20.90;54.80;;;;;;1984959;72;21014;-60
2022/10/03 13:29:29;;;;;;;3.45;1.10;;;20.80;55.40;;;;;;1985034;72;21035;-60
2022/10/03 13:32:02;;;;;;;;;;;20.90;55.90;;;;;;1989548;72;21039;-60
2022/10/03 13:34:33;;;;;;;5.65;0.80;;;20.90;55.50;;;;;;1986115;72;20090;-61
2022/10/03 13:37:11;;;;;;;5.97;1.25;;;20.90;55.30;;;;;;1983691;72;20990;-60
2022/10/03 13:39:46;;;;;;;5.08;1.35;;;20.80;55.50;;;;;;1985281;72;20991;-60
2022/10/03 13:42:23;;;;;;;15.30;2.42;;;20.80;55.60;;;;;;1986697;72;21026;-60
2022/10/03 13:44:58;;;;;;;9.20;2.12;;;20.70;56.20;;;;;;1986717;72;21026;-60
2022/10/03 13:47:50;;;;;;;6.53;1.75;;;20.60;57.30;;;;;;1986609;72;21076;-59
2022/10/03 13:50:39;;;;;;;5.72;1.57;;;20.50;57.70;;;;;;1974080;72;21116;-59
2022/10/03 13:53:11;;;;;;;3.98;1.35;;;20.50;57.60;;;;;;1986692;72;21046;-59
2022/10/03 13:55:57;;;;;;;4.55;2.85;;;20.50;57.80;;;;;;1983947;72;21461;-59
2022/10/03 13:58:49;;;;;;;5.70;1.40;;;20.50;57.90;;;;;;1986668;72;21019;-59
2022/10/03 14:01:43;;;;;;;6.25;1.85;;;20.50;58.20;;;;;;1986708;72;21010;-59
2022/10/03 14:04:37;;;;;;;5.95;1.40;;;20.50;58.50;;;;;;1986808;72;21148;-59
2022/10/03 14:07:21;;;;;;;2.72;1.57;;;20.50;58.30;;;;;;1985924;72;20990;-60
2022/10/03 14:10:05;;;;;;;5.73;1.40;;;20.40;58.40;;;;;;1986950;72;21002;-60
2022/10/03 14:13:01;;;;;;;9.18;3.08;;;20.40;58.60;;;;;;1986030;72;21066;-60
2022/10/03 14:15:39;;;;;;;9.15;3.47;;;20.30;59.70;;;;;;1985169;71;21571;-59
2022/10/03 14:18:13;;;;;;;8.90;2.35;;;20.30;60.90;;;;;;1986027;72;21091;-60
2022/10/03 14:21:08;;;;;;;9.23;2.58;;;20.30;61.50;;;;;;1986987;72;21047;-59
2022/10/03 14:23:49;;;;;;;8.97;2.83;;;20.30;61.80;;;;;;1970927;72;21103;-59
2022/10/03 14:26:44;;;;;;;11.88;2.90;;;20.20;62.60;;;;;;1986744;72;21039;-60
2022/10/03 14:29:28;;;;;;;10.80;2.90;;;20.20;62.70;;;;;;1986509;71;21062;-60
2022/10/03 14:32:03;;;;;;;8.35;3.12;;;20.10;62.50;;;;;;1986076;72;21007;-59
2022/10/03 14:34:55;;;;;;;7.08;3.98;;;20.00;62.40;;;;;;1957091;72;21084;-60
2022/10/03 14:37:27;;;;;;;24.47;14.38;;;19.90;62.60;;;;;;1986594;72;21081;-59